ADDS METAR Data INFO
IDs: Format: Raw Decoded Include TAF

Data at: 1845 UTC 17 Oct 2017

METAR for:KSFB (Sanford Intl, FL, US)
Text:KSFB 171833Z 08009G17KT 10SM SCT022 BKN027 OVC038 24/20 A3005 RMK AO2 RAE1754 P0000 T02390200
Temperature: 23.9°C ( 75°F)
Dewpoint: 20.0°C ( 68°F) [RH = 79%]
Pressure (altimeter):30.05 inches Hg (1017.7 mb)
Winds:from the E (80 degrees) at 10 MPH (9 knots; 4.6 m/s) gusting to 20 MPH (17 knots; 8.7 m/s)
Visibility:10 or more sm (16+ km)
Ceiling:2700 feet AGL
Clouds: scattered clouds at 2200 feet AGL, broken clouds at 2700 feet AGL, overcast cloud deck at 3800 feet AGL